Flight Track Log - Related Links

Times and Time Zones

All times are in EDT time to prevent confusion due to time zone crossing. See the N9944Q flight status page for this flight to view local times or setup timezone preferences in your user account.

Time Position Orientation Groundspeed Altitude Reporting Facility
EDT Latitude Longitude Course Direction KTS MPH feet Rate Location/Type
Mon 10:00:00 PM 40.0513 -74.9900 153° Southeast  Level FlightAware Approximate
Mon 10:01:00 PM 40.0210 -74.9687 143° Southeast  Level Estimated
Mon 10:02:00 PM 39.9906 -74.9474 180° South  Level Estimated
Mon 10:03:00 PM 39.9603 -74.9261 151° Southeast  Level Estimated
Mon 10:04:00 PM 39.9302 -74.9043 151° Southeast  Level FlightAware Approximate
Mon 10:05:00 PM 39.9001 -74.8825 151° Southeast  Level FlightAware Approximate
Mon 10:06:00 PM 39.8700 -74.8607 151° Southeast  Level FlightAware Approximate
Mon 10:07:00 PM 39.8399 -74.8389 151° Southeast  Level FlightAware Approximate
Mon 10:08:00 PM 39.8097 -74.8171 151° Southeast  Level FlightAware Approximate
Mon 10:09:00 PM 39.7796 -74.7954 151° Southeast  Level FlightAware Approximate
Mon 10:10:00 PM 39.7495 -74.7737 151° Southeast  Level FlightAware Approximate
Mon 10:11:00 PM 39.7189 -74.7530 153° Southeast  Level Estimated
Mon 10:12:00 PM 39.6884 -74.7323 152° Southeast  Level FlightAware Approximate
Mon 10:13:00 PM 39.6578 -74.7116 152° Southeast  Level FlightAware Approximate
Mon 10:14:00 PM 39.6273 -74.6909 152° Southeast  Level FlightAware Approximate
Mon 10:15:00 PM 39.5967 -74.6703 152° Southeast  Level FlightAware Approximate
Mon 10:16:00 PM 39.5661 -74.6498 153° Southeast  Level Estimated
Mon 10:17:00 PM 39.5355 -74.6293 153° Southeast  Level FlightAware Approximate
Mon 10:18:00 PM 39.5049 -74.6088 150° Southeast  Level Estimated
Mon 10:19:00 PM 39.4753 -74.5861 149° Southeast  Level FlightAware Approximate
Mon 10:20:00 PM 39.4576 -74.5772 150° Southeast  Level Estimated
Mon 10:21:00 PM 39.4576 -74.5772 133° Southeast  Level Estimated
Mon 10:22:00 PM 39.4576 -74.5772 133° Southeast  Level Estimated
Mon 10:23:00 PM 39.4576 -74.5772 150° Southeast  Level Estimated

Login

Don't have an account? Register now (free) for customized features, flight alerts, and more!